createdAt,value
2019-06-27T04:00:58.861Z,19.31
2019-06-27T04:01:59.035Z,19.48
2019-06-27T04:02:59.209Z,19.36
2019-06-27T04:03:59.391Z,19.36
2019-06-27T04:04:59.561Z,19.37
2019-06-27T04:05:59.748Z,19.36
2019-06-27T04:06:59.919Z,19.44
2019-06-27T04:08:00.093Z,19.47
2019-06-27T04:09:00.270Z,19.58
2019-06-27T04:10:00.447Z,19.55
2019-06-27T04:11:00.628Z,19.55
2019-06-27T04:12:00.797Z,19.52
2019-06-27T04:13:00.973Z,19.64
2019-06-27T04:14:01.175Z,19.69
2019-06-27T04:15:01.326Z,19.58
2019-06-27T04:16:01.508Z,19.59
2019-06-27T04:17:01.688Z,19.63
2019-06-27T04:18:01.853Z,19.63
2019-06-27T04:19:02.029Z,19.66
2019-06-27T04:20:02.206Z,19.64
2019-06-27T04:21:02.381Z,19.70
2019-06-27T04:22:02.562Z,19.70
2019-06-27T04:23:02.737Z,19.66
2019-06-27T04:24:02.925Z,19.62
2019-06-27T04:25:03.100Z,19.63
2019-06-27T04:26:03.285Z,19.56
2019-06-27T04:27:03.446Z,19.63
2019-06-27T04:28:03.624Z,19.67
2019-06-27T04:29:03.800Z,19.59
2019-06-27T04:30:03.976Z,19.59
2019-06-27T04:31:04.156Z,19.58
2019-06-27T04:32:04.327Z,19.47
2019-06-27T04:33:04.518Z,19.48
2019-06-27T04:34:04.678Z,19.39
2019-06-27T04:35:04.854Z,19.39
2019-06-27T04:36:05.033Z,19.44
2019-06-27T04:37:05.206Z,19.40
2019-06-27T04:38:05.383Z,19.37
2019-06-27T04:39:05.559Z,19.37
2019-06-27T04:40:05.735Z,19.34
2019-06-27T04:41:05.913Z,19.31
2019-06-27T04:42:06.094Z,19.34
2019-06-27T04:43:06.548Z,19.37
2019-06-27T04:44:06.444Z,19.29
2019-06-27T04:45:06.625Z,19.21
2019-06-27T04:46:06.800Z,19.18
2019-06-27T04:47:06.989Z,19.11
2019-06-27T04:48:07.162Z,19.16
2019-06-27T04:49:12.787Z,19.14
2019-06-27T04:50:07.523Z,19.15
2019-06-27T04:51:07.678Z,19.14
2019-06-27T04:52:07.852Z,19.09
2019-06-27T04:53:08.036Z,18.99
2019-06-27T04:54:08.205Z,19.00
2019-06-27T04:55:08.425Z,19.08
2019-06-27T04:56:08.576Z,19.15
2019-06-27T04:57:08.736Z,19.02
2019-06-27T04:58:08.913Z,19.08
2019-06-27T04:59:09.088Z,18.95
2019-06-27T05:00:09.268Z,19.18
2019-06-27T05:01:09.441Z,19.11
2019-06-27T05:02:09.619Z,19.16
2019-06-27T05:03:09.794Z,19.21
2019-06-27T05:04:09.978Z,19.19
2019-06-27T05:05:10.144Z,19.27
2019-06-27T05:06:10.340Z,19.34
2019-06-27T05:07:10.498Z,19.27
2019-06-27T05:08:14.185Z,19.36
2019-06-27T05:09:10.854Z,19.26
2019-06-27T05:10:11.026Z,19.29
2019-06-27T05:11:11.206Z,19.27
2019-06-27T05:12:11.393Z,19.29
2019-06-27T05:13:11.563Z,19.29
2019-06-27T05:14:11.737Z,19.14
2019-06-27T05:15:11.914Z,19.27
2019-06-27T05:16:12.089Z,19.19
2019-06-27T05:17:12.265Z,19.11
2019-06-27T05:18:12.440Z,19.21
2019-06-27T05:19:12.621Z,19.14
2019-06-27T05:20:12.804Z,19.16
2019-06-27T05:21:12.979Z,19.34
2019-06-27T05:22:13.145Z,19.33
2019-06-27T05:23:13.320Z,19.27
2019-06-27T05:24:13.500Z,19.33
2019-06-27T05:25:13.676Z,19.37
2019-06-27T05:26:13.877Z,19.49
2019-06-27T05:27:14.027Z,19.39
2019-06-27T05:28:14.203Z,19.45
2019-06-27T05:29:14.385Z,19.44
2019-06-27T05:30:14.556Z,19.39
2019-06-27T05:31:14.733Z,19.36
2019-06-27T05:32:14.909Z,19.37
2019-06-27T05:33:15.082Z,19.34
2019-06-27T05:34:15.258Z,19.40
2019-06-27T05:35:15.434Z,19.39
2019-06-27T05:36:15.614Z,19.44
2019-06-27T05:37:15.788Z,19.55
2019-06-27T05:38:15.962Z,19.59
2019-06-27T05:39:16.137Z,19.63
2019-06-27T05:40:16.312Z,19.55
2019-06-27T05:41:16.489Z,19.59
2019-06-27T05:42:16.665Z,19.56
2019-06-27T05:43:16.839Z,19.76
2019-06-27T05:44:17.014Z,19.74
2019-06-27T05:45:17.192Z,19.74
2019-06-27T05:46:17.373Z,19.66
2019-06-27T05:47:17.549Z,19.55
2019-06-27T05:48:17.727Z,19.64
2019-06-27T05:49:17.904Z,19.74
2019-06-27T05:50:18.077Z,19.66
2019-06-27T05:51:18.261Z,19.76
2019-06-27T05:52:18.432Z,19.82
2019-06-27T05:53:18.611Z,19.89
2019-06-27T05:54:18.787Z,19.82
2019-06-27T05:55:18.960Z,19.79
2019-06-27T05:56:19.136Z,19.81
2019-06-27T05:57:19.309Z,19.85
2019-06-27T05:58:19.486Z,19.84
2019-06-27T05:59:19.667Z,19.85
2019-06-27T06:00:28.525Z,19.71
2019-06-27T06:01:20.015Z,19.88
2019-06-27T06:02:20.187Z,19.91
2019-06-27T06:03:20.364Z,19.89
2019-06-27T06:04:23.941Z,19.92
2019-06-27T06:05:20.712Z,19.85
2019-06-27T06:06:20.913Z,19.92
2019-06-27T06:07:21.059Z,19.86
2019-06-27T06:08:21.241Z,19.92
2019-06-27T06:09:21.404Z,19.94
2019-06-27T06:10:21.580Z,20.06
2019-06-27T06:11:21.753Z,20.09
2019-06-27T06:12:21.928Z,20.06
2019-06-27T06:13:22.123Z,20.18
2019-06-27T06:14:22.279Z,20.22
2019-06-27T06:15:22.464Z,20.21
2019-06-27T06:16:22.638Z,20.16
2019-06-27T06:17:22.814Z,20.21
2019-06-27T06:18:22.993Z,20.24
2019-06-27T06:19:23.166Z,20.26
2019-06-27T06:20:23.344Z,20.36
2019-06-27T06:21:23.520Z,20.37
2019-06-27T06:22:23.690Z,20.47
2019-06-27T06:23:23.864Z,20.41
2019-06-27T06:24:24.043Z,20.47
2019-06-27T06:25:24.217Z,20.48
2019-06-27T06:26:24.395Z,20.56
2019-06-27T06:27:24.572Z,20.55
2019-06-27T06:28:24.746Z,20.55
2019-06-27T06:29:24.919Z,20.48
2019-06-27T06:30:25.095Z,20.40
2019-06-27T06:31:25.276Z,20.48
2019-06-27T06:32:25.453Z,20.41
2019-06-27T06:33:25.627Z,20.60
2019-06-27T06:34:25.799Z,20.60
2019-06-27T06:35:25.976Z,20.67
2019-06-27T06:36:26.156Z,20.72
2019-06-27T06:37:26.331Z,20.70
2019-06-27T06:38:26.508Z,20.78
2019-06-27T06:39:26.682Z,20.75
2019-06-27T06:40:26.857Z,20.77
2019-06-27T06:41:27.032Z,20.74
2019-06-27T06:42:27.206Z,20.90
2019-06-27T06:43:27.382Z,20.85
2019-06-27T06:44:27.559Z,21.00
2019-06-27T06:45:27.731Z,20.90
2019-06-27T06:46:27.912Z,21.00
2019-06-27T06:47:28.090Z,21.02
2019-06-27T06:48:28.264Z,20.82
2019-06-27T06:49:28.440Z,21.02
2019-06-27T06:50:28.622Z,21.11
2019-06-27T06:51:28.798Z,21.06
2019-06-27T06:52:28.971Z,21.18
2019-06-27T06:53:29.150Z,21.14
2019-06-27T06:54:29.324Z,21.14
2019-06-27T06:55:29.501Z,21.18
2019-06-27T06:56:29.678Z,21.14
2019-06-27T06:57:29.853Z,21.25
2019-06-27T06:58:30.027Z,21.32
2019-06-27T06:59:30.214Z,21.30
2019-06-27T07:00:30.405Z,21.50
2019-06-27T07:01:30.560Z,21.55
2019-06-27T07:02:30.735Z,21.57
2019-06-27T07:03:30.969Z,21.55
2019-06-27T07:04:31.087Z,21.52
2019-06-27T07:05:31.262Z,21.61
2019-06-27T07:06:31.439Z,21.70
2019-06-27T07:07:31.616Z,21.76
2019-06-27T07:08:31.793Z,21.80
2019-06-27T07:09:31.966Z,21.82
2019-06-27T07:10:32.142Z,21.73
2019-06-27T07:11:32.324Z,21.72
2019-06-27T07:12:32.498Z,21.75
2019-06-27T07:13:32.672Z,21.73
2019-06-27T07:14:32.848Z,21.76
2019-06-27T07:15:33.025Z,21.88
2019-06-27T07:16:33.206Z,21.95
2019-06-27T07:17:33.377Z,21.88
2019-06-27T07:18:33.556Z,21.91
2019-06-27T07:19:33.735Z,21.99
2019-06-27T07:20:33.911Z,22.13
2019-06-27T07:21:34.082Z,22.13
2019-06-27T07:22:34.256Z,22.13
2019-06-27T07:23:34.432Z,22.26
2019-06-27T07:24:34.608Z,22.36
2019-06-27T07:25:34.784Z,22.47
2019-06-27T07:26:34.964Z,22.53
2019-06-27T07:27:35.147Z,22.48
2019-06-27T07:28:35.318Z,22.45
2019-06-27T07:29:35.489Z,22.47
2019-06-27T07:30:35.715Z,22.47
2019-06-27T07:31:35.848Z,22.50
2019-06-27T07:32:36.013Z,22.51
2019-06-27T07:33:36.191Z,22.54
2019-06-27T07:34:36.369Z,22.55
2019-06-27T07:35:36.541Z,22.54
2019-06-27T07:36:36.719Z,22.63
2019-06-27T07:37:36.894Z,22.60
2019-06-27T07:38:37.077Z,22.62
2019-06-27T07:39:37.250Z,22.60
2019-06-27T07:40:37.426Z,22.73
2019-06-27T07:41:37.602Z,22.65
2019-06-27T07:42:37.777Z,22.81
2019-06-27T07:43:37.957Z,22.93
2019-06-27T07:44:38.134Z,22.85
2019-06-27T07:45:38.309Z,22.88
2019-06-27T07:46:38.484Z,22.98
2019-06-27T07:47:38.667Z,23.02
2019-06-27T07:48:38.865Z,23.09
2019-06-27T07:49:39.014Z,23.08
2019-06-27T07:50:39.192Z,23.10
2019-06-27T07:51:39.372Z,23.12
2019-06-27T07:52:39.544Z,23.24
2019-06-27T07:53:39.724Z,23.25
2019-06-27T07:54:39.900Z,23.36
2019-06-27T07:55:40.090Z,23.24
2019-06-27T07:56:40.252Z,23.09
2019-06-27T07:57:40.436Z,23.12
2019-06-27T07:58:40.607Z,23.09
2019-06-27T07:59:40.782Z,23.10
2019-06-27T08:00:40.960Z,23.15
2019-06-27T08:01:41.136Z,23.34
2019-06-27T08:02:41.310Z,23.43
2019-06-27T08:03:41.484Z,23.55
2019-06-27T08:04:41.663Z,23.61
2019-06-27T08:05:41.839Z,23.62
2019-06-27T08:06:42.017Z,23.65
2019-06-27T08:07:42.195Z,23.78
2019-06-27T08:08:42.374Z,23.84
2019-06-27T08:09:42.548Z,23.88
2019-06-27T08:10:42.724Z,23.93
2019-06-27T08:11:42.906Z,23.84
2019-06-27T08:12:43.080Z,23.95
2019-06-27T08:13:43.262Z,23.87
2019-06-27T08:14:43.440Z,23.80
2019-06-27T08:15:43.613Z,23.83
2019-06-27T08:16:43.788Z,24.02
2019-06-27T08:17:43.966Z,23.96
2019-06-27T08:18:44.145Z,23.99
2019-06-27T08:19:44.319Z,23.99
2019-06-27T08:20:44.497Z,24.11
2019-06-27T08:21:44.673Z,24.35
2019-06-27T08:22:44.851Z,24.39
2019-06-27T08:23:45.027Z,24.48
2019-06-27T08:24:45.201Z,24.58
2019-06-27T08:28:17.138Z,25.28
2019-06-27T08:29:17.312Z,25.53
2019-06-27T08:30:17.532Z,25.78
2019-06-27T08:31:17.709Z,26.02
2019-06-27T08:32:17.875Z,26.34
2019-06-27T08:33:18.085Z,26.78
2019-06-27T08:34:18.228Z,27.08
2019-06-27T08:35:18.402Z,27.12
2019-06-27T08:36:18.583Z,27.27
2019-06-27T08:37:18.755Z,27.44
2019-06-27T08:38:18.933Z,27.58
2019-06-27T08:39:19.109Z,27.87
2019-06-27T08:40:19.285Z,27.96
2019-06-27T08:41:19.460Z,28.01
2019-06-27T08:42:19.637Z,27.98
2019-06-27T08:43:19.814Z,28.07
2019-06-27T08:44:20.005Z,27.80
2019-06-27T08:45:20.159Z,27.65
2019-06-27T08:46:20.341Z,27.35
2019-06-27T08:47:20.515Z,27.32
2019-06-27T08:48:20.692Z,27.12
2019-06-27T08:49:20.885Z,27.07
2019-06-27T08:50:21.043Z,26.78
2019-06-27T08:51:21.221Z,26.73
2019-06-27T08:52:21.401Z,26.63
2019-06-27T08:53:21.586Z,26.37
2019-06-27T08:54:21.747Z,26.13
2019-06-27T08:55:21.923Z,25.95
2019-06-27T08:56:22.098Z,25.77
2019-06-27T08:57:22.273Z,25.73
2019-06-27T08:58:22.455Z,25.62
2019-06-27T08:59:22.625Z,25.55
2019-06-27T09:00:22.801Z,25.73
2019-06-27T09:01:22.978Z,25.65
2019-06-27T09:02:23.170Z,25.77
2019-06-27T09:03:23.341Z,25.85
2019-06-27T09:04:23.517Z,25.99
2019-06-27T09:05:23.692Z,26.22
2019-06-27T09:06:23.866Z,26.15
2019-06-27T09:07:24.053Z,26.10
2019-06-27T09:08:24.222Z,26.10
2019-06-27T09:09:24.399Z,26.15
2019-06-27T09:10:24.574Z,26.15
2019-06-27T09:11:24.754Z,26.36
2019-06-27T09:12:24.928Z,26.37
2019-06-27T09:13:25.102Z,26.28
2019-06-27T09:14:25.275Z,26.38
2019-06-27T09:15:25.462Z,26.38
2019-06-27T09:16:25.633Z,26.36
2019-06-27T09:17:25.810Z,26.43
2019-06-27T09:18:25.986Z,26.65
2019-06-27T09:19:26.158Z,26.51
2019-06-27T09:20:26.335Z,26.59
2019-06-27T09:21:26.512Z,26.62
2019-06-27T09:22:26.697Z,26.66
2019-06-27T09:23:26.860Z,26.71
2019-06-27T09:24:27.035Z,26.77
2019-06-27T09:25:27.215Z,26.73
2019-06-27T09:26:27.385Z,26.93
2019-06-27T09:27:27.561Z,26.73
2019-06-27T09:28:27.741Z,26.77
2019-06-27T09:29:27.918Z,26.85
2019-06-27T09:30:28.094Z,26.90
2019-06-27T09:31:28.271Z,26.85
2019-06-27T09:32:28.449Z,26.77
2019-06-27T09:33:28.624Z,26.81
2019-06-27T09:34:28.798Z,26.81
2019-06-27T09:35:28.973Z,26.88
2019-06-27T09:36:29.148Z,26.85
2019-06-27T09:37:29.324Z,26.99
2019-06-27T09:38:29.506Z,27.07
2019-06-27T09:39:29.682Z,27.10
2019-06-27T09:40:29.865Z,27.17
2019-06-27T09:41:30.029Z,27.32
2019-06-27T09:42:30.204Z,27.47
2019-06-27T09:43:30.381Z,27.40
2019-06-27T09:44:30.560Z,27.48
2019-06-27T09:45:30.739Z,27.39
2019-06-27T09:46:30.915Z,27.47
2019-06-27T09:47:31.090Z,27.42
2019-06-27T09:48:31.269Z,27.49
2019-06-27T09:49:31.447Z,27.39
2019-06-27T09:50:31.621Z,27.67
2019-06-27T09:51:31.800Z,27.64
2019-06-27T09:52:31.973Z,27.63
2019-06-27T09:53:32.150Z,27.63
2019-06-27T09:54:32.328Z,27.64
2019-06-27T09:55:32.504Z,27.67
2019-06-27T09:56:32.704Z,27.49
2019-06-27T09:57:32.857Z,27.64
2019-06-27T09:58:33.041Z,27.63
2019-06-27T09:59:33.211Z,27.54
2019-06-27T10:00:33.389Z,27.49
2019-06-27T10:01:33.561Z,27.33
2019-06-27T10:02:41.378Z,27.30
2019-06-27T10:03:33.921Z,27.35
2019-06-27T10:04:34.097Z,27.59
2019-06-27T10:05:34.272Z,27.64
2019-06-27T10:06:34.447Z,27.78
2019-06-27T10:07:34.626Z,28.01
2019-06-27T10:08:34.802Z,28.20
2019-06-27T10:09:34.976Z,28.22
2019-06-27T10:10:35.152Z,28.30
2019-06-27T10:11:35.327Z,28.33
2019-06-27T10:12:42.123Z,28.38
2019-06-27T10:13:35.679Z,28.54
2019-06-27T10:14:35.854Z,28.63
2019-06-27T10:15:36.031Z,28.63
2019-06-27T10:16:36.207Z,28.79
2019-06-27T10:17:36.382Z,28.97
2019-06-27T10:18:36.559Z,29.20
2019-06-27T10:19:36.737Z,29.54
2019-06-27T10:20:36.911Z,29.81
2019-06-27T10:21:37.093Z,29.93
2019-06-27T10:22:37.271Z,30.21
2019-06-27T10:23:37.442Z,30.44
2019-06-27T10:24:37.617Z,30.66
2019-06-27T10:25:38.337Z,30.75
2019-06-27T10:26:37.968Z,31.07
2019-06-27T10:27:38.195Z,31.20
2019-06-27T10:28:38.339Z,31.51
2019-06-27T10:29:38.573Z,31.54
2019-06-27T10:30:38.706Z,31.73
2019-06-27T10:31:38.915Z,31.99
2019-06-27T10:32:39.143Z,32.16
2019-06-27T10:33:39.283Z,32.19
2019-06-27T10:34:39.469Z,32.04
2019-06-27T10:35:39.570Z,32.23
2019-06-27T10:36:39.753Z,32.14
2019-06-27T10:37:39.925Z,32.04
2019-06-27T10:38:40.104Z,32.26
2019-06-27T10:39:40.287Z,32.55
2019-06-27T10:40:40.463Z,32.68
2019-06-27T10:41:40.646Z,32.63
2019-06-27T10:42:40.838Z,32.53
2019-06-27T10:43:41.000Z,32.59
2019-06-27T10:44:41.178Z,32.70
2019-06-27T10:45:41.358Z,32.85
2019-06-27T10:46:41.536Z,32.86
2019-06-27T10:47:41.712Z,33.00
2019-06-27T10:48:41.891Z,32.96
2019-06-27T10:49:42.075Z,32.93
2019-06-27T10:50:42.248Z,33.17
2019-06-27T10:51:42.439Z,33.34
2019-06-27T10:52:42.607Z,33.43
2019-06-27T10:53:42.803Z,33.49
2019-06-27T10:54:42.968Z,33.34
2019-06-27T10:55:43.149Z,33.45
2019-06-27T10:56:43.335Z,33.47
2019-06-27T10:57:43.506Z,33.50
2019-06-27T10:58:43.687Z,33.46
2019-06-27T10:59:43.868Z,33.67
2019-06-27T11:00:44.048Z,33.68
2019-06-27T11:01:44.231Z,33.79
2019-06-27T11:02:44.412Z,33.81
2019-06-27T11:03:44.592Z,33.90
2019-06-27T11:04:44.775Z,33.99
2019-06-27T11:05:44.948Z,33.77
2019-06-27T11:06:45.150Z,33.90
2019-06-27T11:07:45.343Z,33.96
2019-06-27T11:08:45.531Z,33.80
2019-06-27T11:09:45.710Z,33.89
2019-06-27T11:10:45.901Z,33.95
2019-06-27T11:11:46.064Z,34.01
2019-06-27T11:12:46.245Z,34.18
2019-06-27T11:13:58.357Z,34.06
2019-06-27T11:14:58.588Z,33.89
2019-06-27T11:15:49.248Z,34.16
2019-06-27T11:16:46.980Z,34.11
2019-06-27T11:17:47.152Z,34.11
2019-06-27T11:18:47.337Z,34.32
2019-06-27T11:19:52.459Z,34.61
2019-06-27T11:20:47.703Z,34.71
2019-06-27T11:21:47.891Z,34.51
2019-06-27T11:22:48.079Z,34.42
2019-06-27T11:23:48.261Z,34.29
2019-06-27T11:24:48.446Z,34.33
2019-06-27T11:25:48.631Z,34.39
2019-06-27T11:26:48.809Z,34.86
2019-06-27T11:27:48.997Z,34.89
2019-06-27T11:28:49.180Z,35.00
2019-06-27T11:29:49.366Z,34.85
2019-06-27T11:30:49.551Z,34.70
2019-06-27T11:31:49.723Z,34.74
2019-06-27T11:32:49.908Z,34.83
2019-06-27T11:33:50.090Z,35.05
2019-06-27T11:34:50.274Z,34.60
2019-06-27T11:35:50.455Z,35.05
2019-06-27T11:36:50.637Z,35.26
2019-06-27T11:37:50.824Z,35.29
2019-06-27T11:38:51.013Z,35.33
2019-06-27T11:39:51.186Z,35.30
2019-06-27T11:40:51.495Z,35.19
2019-06-27T11:41:51.585Z,35.23
2019-06-27T11:42:51.751Z,35.23
2019-06-27T11:43:51.934Z,35.22
2019-06-27T11:44:52.117Z,35.19
2019-06-27T11:45:52.303Z,35.36
2019-06-27T11:46:52.486Z,35.37
2019-06-27T11:47:52.672Z,35.51
2019-06-27T11:48:52.862Z,35.31
2019-06-27T11:49:53.041Z,35.27
2019-06-27T11:50:53.226Z,35.22
2019-06-27T11:51:53.417Z,35.36
2019-06-27T11:52:53.589Z,35.42
2019-06-27T11:53:53.774Z,35.41
2019-06-27T11:54:53.957Z,35.29
2019-06-27T11:55:54.142Z,35.12
2019-06-27T11:56:54.329Z,35.14
2019-06-27T11:57:56.747Z,34.97
2019-06-27T11:58:54.698Z,35.31
2019-06-27T11:59:54.892Z,35.42
2019-06-27T12:00:55.071Z,35.37
2019-06-27T12:01:55.254Z,35.30
2019-06-27T12:02:55.438Z,35.34
2019-06-27T12:03:55.619Z,35.48
2019-06-27T12:04:55.801Z,35.73
2019-06-27T12:05:55.985Z,35.74
2019-06-27T12:06:56.169Z,35.68
2019-06-27T12:07:56.353Z,35.48
2019-06-27T12:08:56.536Z,35.55
2019-06-27T12:09:56.717Z,35.51
2019-06-27T12:10:56.916Z,35.88
2019-06-27T12:11:57.092Z,35.73
2019-06-27T12:12:57.276Z,35.89
2019-06-27T12:13:57.506Z,36.16
2019-06-27T12:14:57.651Z,36.04
2019-06-27T12:15:57.833Z,36.21
2019-06-27T12:16:58.015Z,36.02
2019-06-27T12:17:58.203Z,36.08
2019-06-27T12:18:58.374Z,35.98
2019-06-27T12:19:58.562Z,36.18
2019-06-27T12:20:58.746Z,36.14
2019-06-27T12:21:58.931Z,36.31
2019-06-27T12:22:59.121Z,36.08
2019-06-27T12:23:59.302Z,35.88
2019-06-27T12:24:59.485Z,35.97
2019-06-27T12:25:59.670Z,35.79
2019-06-27T12:26:59.870Z,35.83
2019-06-27T12:28:00.042Z,35.97
2019-06-27T12:29:00.228Z,35.70
2019-06-27T12:30:00.494Z,35.83
2019-06-27T12:31:10.328Z,35.92
2019-06-27T12:32:00.780Z,35.80
2019-06-27T12:33:00.979Z,35.98
2019-06-27T12:34:07.055Z,36.08
2019-06-27T12:35:01.357Z,35.85
2019-06-27T12:36:01.539Z,36.18
2019-06-27T12:37:01.726Z,36.17
2019-06-27T12:38:01.911Z,36.21
2019-06-27T12:39:02.092Z,36.16
2019-06-27T12:40:02.486Z,36.09
2019-06-27T12:41:02.484Z,36.17
2019-06-27T12:42:02.657Z,36.01
2019-06-27T12:43:02.855Z,36.17
2019-06-27T12:44:03.029Z,36.18
2019-06-27T12:45:03.211Z,35.97
2019-06-27T12:46:03.907Z,35.90
2019-06-27T12:47:03.580Z,36.08
2019-06-27T12:48:07.074Z,36.01
2019-06-27T12:49:03.948Z,35.92
2019-06-27T12:50:04.131Z,36.08
2019-06-27T12:51:04.323Z,36.43
2019-06-27T12:52:04.563Z,36.89
2019-06-27T12:53:04.691Z,37.01
2019-06-27T12:54:04.894Z,36.93
2019-06-27T12:55:05.066Z,36.67
2019-06-27T12:56:05.250Z,36.74
2019-06-27T12:57:05.433Z,36.79
2019-06-27T12:58:05.619Z,36.59
2019-06-27T12:59:05.807Z,36.47
2019-06-27T13:00:08.701Z,36.52
2019-06-27T13:01:06.180Z,36.39
2019-06-27T13:02:06.368Z,36.40
2019-06-27T13:03:06.557Z,36.52
2019-06-27T13:04:22.419Z,36.39
2019-06-27T13:05:06.928Z,36.09
2019-06-27T13:06:07.113Z,36.18
2019-06-27T13:07:07.306Z,36.39
2019-06-27T13:08:07.477Z,36.12
2019-06-27T13:09:07.665Z,36.14
2019-06-27T13:10:07.846Z,36.08
2019-06-27T13:11:08.031Z,36.24
2019-06-27T13:12:08.214Z,36.18
2019-06-27T13:13:08.400Z,36.43
2019-06-27T13:14:08.580Z,36.46
2019-06-27T13:15:08.764Z,36.46
2019-06-27T13:16:08.954Z,36.52
2019-06-27T13:17:09.137Z,36.59
2019-06-27T13:18:09.340Z,36.45
2019-06-27T13:19:09.524Z,36.40
2019-06-27T13:20:09.710Z,36.51
2019-06-27T13:21:09.906Z,36.45
2019-06-27T13:22:10.071Z,36.52
2019-06-27T13:23:10.257Z,36.88
2019-06-27T13:24:10.443Z,36.86
2019-06-27T13:25:10.650Z,36.72
2019-06-27T13:26:10.812Z,37.01
2019-06-27T13:27:11.121Z,36.80
2019-06-27T13:28:11.188Z,36.95
2019-06-27T13:29:11.367Z,36.99
2019-06-27T13:30:11.607Z,36.99
2019-06-27T13:31:11.766Z,36.92
2019-06-27T13:32:11.929Z,36.79
2019-06-27T13:33:12.115Z,36.64
2019-06-27T13:34:12.301Z,36.46
2019-06-27T13:35:12.491Z,36.35
2019-06-27T13:36:12.673Z,36.35
2019-06-27T13:37:12.859Z,36.35
2019-06-27T13:38:13.047Z,36.61
2019-06-27T13:39:13.234Z,36.70
2019-06-27T13:40:13.414Z,36.77
2019-06-27T13:41:13.603Z,36.86
2019-06-27T13:42:13.783Z,36.99
2019-06-27T13:43:13.968Z,36.84
2019-06-27T13:44:14.153Z,36.98
2019-06-27T13:45:14.338Z,36.91
2019-06-27T13:46:14.523Z,37.02
2019-06-27T13:47:14.708Z,37.01
2019-06-27T13:48:14.897Z,36.95
2019-06-27T13:49:15.081Z,37.11
2019-06-27T13:50:15.265Z,37.17
2019-06-27T13:51:15.456Z,37.06
2019-06-27T13:52:15.640Z,37.06
2019-06-27T13:53:15.826Z,37.03
2019-06-27T13:54:16.011Z,37.14
2019-06-27T13:55:16.199Z,37.06
2019-06-27T13:56:16.387Z,36.86
2019-06-27T13:57:16.570Z,36.91
2019-06-27T13:58:16.756Z,36.83
2019-06-27T13:59:16.949Z,36.92
2019-06-27T14:00:17.126Z,36.77
2019-06-27T14:01:17.312Z,36.62
2019-06-27T14:02:17.495Z,36.68
2019-06-27T14:03:17.679Z,36.23
2019-06-27T14:04:17.862Z,36.51
2019-06-27T14:05:18.048Z,36.36
2019-06-27T14:06:18.233Z,36.57
2019-06-27T14:07:18.419Z,36.49
2019-06-27T14:08:18.604Z,36.68
2019-06-27T14:09:23.501Z,36.58
2019-06-27T14:10:18.977Z,36.61
2019-06-27T14:11:19.165Z,36.59
2019-06-27T14:12:19.347Z,36.67
2019-06-27T14:13:19.535Z,36.49
2019-06-27T14:14:19.747Z,36.59
2019-06-27T14:15:19.899Z,36.51
2019-06-27T14:16:20.086Z,36.43
2019-06-27T14:17:20.277Z,36.57
2019-06-27T14:18:20.447Z,36.61
2019-06-27T14:19:20.636Z,36.74
2019-06-27T14:20:20.826Z,36.51
2019-06-27T14:21:21.001Z,36.43
2019-06-27T14:22:32.800Z,36.51
2019-06-27T14:23:21.385Z,36.31
2019-06-27T14:24:21.559Z,36.31
2019-06-27T14:25:21.739Z,36.30
2019-06-27T14:26:21.924Z,36.49
2019-06-27T14:27:22.150Z,36.33
2019-06-27T14:28:22.297Z,36.14
2019-06-27T14:29:22.473Z,35.92
2019-06-27T14:30:22.661Z,35.89
2019-06-27T14:31:22.846Z,35.85
2019-06-27T14:32:23.032Z,35.80
2019-06-27T14:33:23.224Z,35.66
2019-06-27T14:34:23.405Z,35.42
2019-06-27T14:35:23.590Z,35.34
2019-06-27T14:36:23.779Z,35.44
2019-06-27T14:37:23.960Z,35.22
2019-06-27T14:38:24.149Z,35.22
2019-06-27T14:39:24.322Z,35.07
2019-06-27T14:40:24.511Z,35.04
2019-06-27T14:41:24.701Z,34.78
2019-06-27T14:42:24.887Z,34.60
2019-06-27T14:43:25.072Z,34.62
2019-06-27T14:44:25.258Z,34.81
2019-06-27T14:45:25.441Z,34.92
2019-06-27T14:46:25.625Z,34.73
2019-06-27T14:47:25.810Z,34.92
2019-06-27T14:48:25.997Z,35.15
2019-06-27T14:49:26.197Z,35.26
2019-06-27T14:50:26.361Z,35.27
2019-06-27T14:51:26.549Z,35.31
2019-06-27T14:52:26.787Z,35.30
2019-06-27T14:53:26.926Z,35.36
2019-06-27T14:54:27.118Z,35.10
2019-06-27T14:55:27.292Z,35.24
2019-06-27T14:56:27.477Z,35.36
2019-06-27T14:57:27.665Z,35.33
2019-06-27T14:58:27.846Z,35.42
2019-06-27T14:59:28.032Z,35.30
2019-06-27T15:00:28.217Z,35.51
2019-06-27T15:01:28.402Z,35.39
2019-06-27T15:02:28.584Z,35.05
2019-06-27T15:03:32.521Z,34.81
2019-06-27T15:04:28.952Z,34.93
2019-06-27T15:05:33.069Z,34.70
2019-06-27T15:06:29.323Z,34.33
2019-06-27T15:07:29.507Z,34.42
2019-06-27T15:08:29.689Z,34.40
2019-06-27T15:09:29.874Z,34.48
2019-06-27T15:10:30.057Z,34.35
2019-06-27T15:11:30.249Z,34.48
2019-06-27T15:12:30.428Z,34.70
2019-06-27T15:13:30.612Z,34.58
2019-06-27T15:14:30.798Z,34.25
2019-06-27T15:15:30.983Z,34.33
2019-06-27T15:16:31.168Z,34.29
2019-06-27T15:17:31.359Z,34.30
2019-06-27T15:18:31.539Z,34.23
2019-06-27T15:19:31.725Z,34.45
2019-06-27T15:20:31.907Z,34.24
2019-06-27T15:21:32.099Z,34.21
2019-06-27T15:22:32.292Z,34.16
2019-06-27T15:23:32.458Z,34.18
2019-06-27T15:24:32.642Z,34.03
2019-06-27T15:25:32.822Z,34.11
2019-06-27T15:26:33.020Z,34.18
2019-06-27T15:27:33.197Z,34.18
2019-06-27T15:28:34.374Z,34.10
2019-06-27T15:29:33.572Z,34.17
2019-06-27T15:30:33.750Z,34.13
2019-06-27T15:31:33.933Z,33.83
2019-06-27T15:32:34.118Z,33.87
2019-06-27T15:33:34.305Z,33.90
2019-06-27T15:34:34.487Z,33.76
2019-06-27T15:35:50.889Z,33.65
2019-06-27T15:36:34.856Z,33.34
2019-06-27T15:37:35.040Z,33.36
2019-06-27T15:38:35.231Z,33.45
2019-06-27T15:39:35.410Z,33.42
2019-06-27T15:40:35.593Z,33.20
2019-06-27T15:41:35.784Z,33.02
2019-06-27T15:42:35.957Z,32.93
2019-06-27T15:43:36.142Z,33.01
2019-06-27T15:44:36.320Z,33.02
2019-06-27T15:45:36.508Z,32.87
2019-06-27T15:46:36.694Z,32.86
2019-06-27T15:47:36.874Z,32.65
2019-06-27T15:48:37.056Z,32.71
2019-06-27T15:49:37.243Z,32.71
2019-06-27T15:50:37.422Z,32.73
2019-06-27T15:51:37.603Z,32.71
2019-06-27T15:52:37.791Z,32.48
2019-06-27T15:53:38.001Z,32.37
2019-06-27T15:54:38.151Z,32.52
2019-06-27T15:55:38.333Z,32.56
2019-06-27T15:56:38.522Z,32.31
2019-06-27T15:57:38.696Z,32.45
2019-06-27T15:58:38.879Z,32.51
2019-06-27T15:59:39.065Z,32.45
2019-06-27T16:00:39.628Z,32.34
2019-06-27T16:01:39.425Z,32.29
2019-06-27T16:02:39.673Z,32.18
2019-06-27T16:03:39.788Z,32.33
2019-06-27T16:04:39.972Z,32.33
2019-06-27T16:05:40.161Z,32.46
2019-06-27T16:06:40.353Z,32.18
2019-06-27T16:07:40.548Z,32.03
2019-06-27T16:08:40.710Z,32.18
2019-06-27T16:09:40.896Z,32.18
2019-06-27T16:10:41.072Z,32.03
2019-06-27T16:11:41.254Z,31.73
2019-06-27T16:12:41.439Z,31.59
2019-06-27T16:13:41.629Z,31.62
2019-06-27T16:14:41.805Z,31.49
2019-06-27T16:15:41.987Z,31.71
2019-06-27T16:16:42.170Z,31.85
2019-06-27T16:17:42.352Z,31.92
2019-06-27T16:18:42.533Z,31.99
2019-06-27T16:19:42.717Z,32.03
2019-06-27T16:20:42.904Z,31.94
2019-06-27T16:21:43.084Z,32.00
2019-06-27T16:22:43.265Z,31.96
2019-06-27T16:23:43.446Z,31.96
2019-06-27T16:24:43.635Z,32.04
2019-06-27T16:25:43.814Z,31.94
2019-06-27T16:26:43.996Z,31.99
2019-06-27T16:27:44.176Z,32.07
2019-06-27T16:28:44.359Z,31.89
2019-06-27T16:29:44.541Z,31.66
2019-06-27T16:30:44.722Z,31.43
2019-06-27T16:31:44.905Z,31.22
2019-06-27T16:32:45.089Z,31.09
2019-06-27T16:33:45.270Z,30.97
2019-06-27T16:34:45.452Z,31.09
2019-06-27T16:35:45.636Z,31.27
2019-06-27T16:36:45.815Z,31.36
2019-06-27T16:37:46.014Z,31.14
2019-06-27T16:38:46.192Z,31.10
2019-06-27T16:39:46.394Z,31.14
2019-06-27T16:40:46.576Z,31.25
2019-06-27T16:41:46.757Z,31.31
2019-06-27T16:42:46.938Z,31.29
2019-06-27T16:43:47.118Z,31.31
2019-06-27T16:44:47.304Z,31.20
2019-06-27T16:45:47.494Z,31.03
2019-06-27T16:46:47.669Z,30.78
2019-06-27T16:47:47.852Z,30.66
2019-06-27T16:48:48.031Z,30.63
2019-06-27T16:49:48.210Z,30.53
2019-06-27T16:50:48.398Z,30.50
2019-06-27T16:51:48.583Z,30.30
2019-06-27T16:52:48.761Z,29.95
2019-06-27T16:53:48.942Z,29.53
2019-06-27T16:54:49.125Z,29.32
2019-06-27T16:55:49.307Z,29.05
2019-06-27T16:56:49.487Z,28.89
2019-06-27T16:57:49.670Z,28.74